Time;durP1;ratioP1;P1;durP2;ratioP2;P2;SDS_P1;SDS_P2;PMS_P1;PMS_P2;Temp;Humidity;BMP_temperature;BMP_pressure;BME280_temperature;BME280_humidity;BME280_pressure;Samples;Min_cycle;Max_cycle;Signal;HPM_P1;HPM_P2
2023/07/23 00:00:38;;;;;;;0.00;0.00;;;;;;;19.24;100.00;98142.13;7392037;19;20014;-79
2023/07/23 00:03:04;;;;;;;0.30;0.10;;;;;;;19.91;100.00;98144.91;7392451;19;20018;-79
2023/07/23 00:05:31;;;;;;;0.00;0.00;;;;;;;19.04;100.00;98148.84;7392462;19;20037;-79
2023/07/23 00:07:58;;;;;;;0.10;0.00;;;;;;;20.16;100.00;98139.94;7391599;19;20015;-78
2023/07/23 00:10:25;;;;;;;1.75;0.28;;;;;;;18.85;100.00;98142.97;7392177;19;20029;-78
2023/07/23 00:12:52;;;;;;;0.00;0.00;;;;;;;19.17;100.00;98145.75;7392253;19;20022;-78
2023/07/23 00:15:18;;;;;;;0.13;0.10;;;;;;;19.10;100.00;98134.53;7392194;19;20338;-78
2023/07/23 00:17:45;;;;;;;3.20;0.17;;;;;;;18.92;100.00;98128.06;7392715;19;20018;-78
2023/07/23 00:20:13;;;;;;;0.00;0.00;;;;;;;19.52;100.00;98135.31;7392262;19;20082;-78
2023/07/23 00:22:40;;;;;;;0.00;0.00;;;;;;;18.89;100.00;98129.97;7392937;19;20018;-78
2023/07/23 00:25:08;;;;;;;0.17;0.17;;;;;;;18.67;100.00;98132.91;7391726;19;20014;-78
2023/07/23 00:27:35;;;;;;;0.03;0.00;;;;;;;18.81;100.00;98129.28;7391846;19;20026;-78
2023/07/23 00:30:03;;;;;;;0.10;0.00;;;;;;;19.61;100.00;98132.59;7392300;19;20015;-78
2023/07/23 00:32:29;;;;;;;0.00;0.00;;;;;;;18.83;100.00;98131.50;7392315;19;20014;-78
2023/07/23 00:34:56;;;;;;;0.00;0.00;;;;;;;19.51;100.00;98117.63;7391878;19;20549;-78
2023/07/23 00:37:22;;;;;;;0.00;0.00;;;;;;;18.98;100.00;98128.59;7391624;19;20019;-78
2023/07/23 00:39:48;;;;;;;0.08;0.00;;;;;;;19.35;100.00;98127.56;7391303;19;20043;-78
2023/07/23 00:42:14;;;;;;;0.00;0.00;;;;;;;22.57;100.00;98118.97;7395022;19;20034;-78
2023/07/23 00:44:40;;;;;;;0.10;0.00;;;;;;;19.20;100.00;98119.19;7399050;19;20018;-78
2023/07/23 00:47:06;;;;;;;0.00;0.00;;;;;;;21.03;100.00;98110.88;7396025;19;20022;-78
2023/07/23 00:49:33;;;;;;;0.00;0.00;;;;;;;19.88;100.00;98117.84;7399218;19;20084;-78
2023/07/23 00:51:59;;;;;;;0.65;0.55;;;;;;;19.14;100.00;98118.69;7398998;19;20341;-78
2023/07/23 00:54:25;;;;;;;0.00;0.00;;;;;;;19.54;100.00;98116.47;7398499;19;20015;-78
2023/07/23 00:56:52;;;;;;;0.00;0.00;;;;;;;19.37;100.00;98113.63;7397516;19;20340;-78
2023/07/23 00:59:19;;;;;;;0.00;0.00;;;;;;;18.92;100.00;98120.34;7396650;19;20015;-78
2023/07/23 01:01:45;;;;;;;0.00;0.00;;;;;;;18.79;100.00;98109.34;7395650;19;20023;-78
2023/07/23 01:04:11;;;;;;;0.00;0.00;;;;;;;18.96;100.00;98108.66;7396513;19;20014;-78
2023/07/23 01:06:39;;;;;;;4.78;0.73;;;;;;;19.01;100.00;98110.50;7395554;19;20524;-78
2023/07/23 01:09:06;;;;;;;0.43;0.40;;;;;;;19.09;100.00;98099.91;7396191;19;20492;-78
2023/07/23 01:11:34;;;;;;;0.00;0.00;;;;;;;19.24;100.00;98105.44;7396745;19;20423;-78
2023/07/23 01:14:05;;;;;;;0.10;0.10;;;;;;;19.14;100.00;98098.94;7397830;19;20025;-79
2023/07/23 01:16:32;;;;;;;0.00;0.00;;;;;;;18.53;100.00;98103.50;7397882;19;20100;-79
2023/07/23 01:18:59;;;;;;;0.00;0.00;;;;;;;18.66;100.00;98106.81;7396424;19;20018;-79
2023/07/23 01:21:27;;;;;;;0.00;0.00;;;;;;;18.70;100.00;98100.75;7395711;19;20018;-79
2023/07/23 01:23:54;;;;;;;6.65;1.10;;;;;;;18.56;100.00;98099.53;7400290;19;20445;-79
2023/07/23 01:26:21;;;;;;;0.10;0.00;;;;;;;19.03;100.00;98099.41;7395780;19;20483;-79
2023/07/23 01:28:47;;;;;;;0.00;0.00;;;;;;;18.85;100.00;98100.66;7397284;19;20030;-78
2023/07/23 01:31:13;;;;;;;0.00;0.00;;;;;;;18.68;100.00;98100.59;7395612;19;20010;-78
2023/07/23 01:33:40;;;;;;;0.00;0.00;;;;;;;18.93;100.00;98093.63;7395381;19;20015;-78
2023/07/23 01:36:07;;;;;;;0.00;0.00;;;;;;;18.82;100.00;98096.16;7396824;19;20029;-78
2023/07/23 01:38:33;;;;;;;0.10;0.00;;;;;;;18.50;100.00;98102.56;7395415;19;20350;-79
2023/07/23 01:41:01;;;;;;;0.10;0.00;;;;;;;19.38;100.00;98098.16;7395843;19;20026;-78
2023/07/23 01:43:28;;;;;;;0.28;0.17;;;;;;;19.19;100.00;98097.94;7395339;19;20049;-78
2023/07/23 01:45:54;;;;;;;0.10;0.00;;;;;;;18.70;100.00;98095.13;7394447;19;20391;-78
2023/07/23 01:48:23;;;;;;;0.00;0.00;;;;;;;18.58;100.00;98091.97;7394205;19;20388;-78
2023/07/23 01:50:49;;;;;;;0.00;0.00;;;;;;;18.58;100.00;98094.06;7396454;19;20015;-78
2023/07/23 01:53:16;;;;;;;0.00;0.00;;;;;;;18.69;100.00;98090.81;7396718;19;20014;-78
2023/07/23 01:55:42;;;;;;;0.00;0.00;;;;;;;18.76;100.00;98087.94;7397634;19;20464;-78
2023/07/23 01:58:08;;;;;;;0.00;0.00;;;;;;;18.90;100.00;98099.69;7392632;19;20082;-78
2023/07/23 02:00:34;;;;;;;0.40;0.00;;;;;;;18.80;100.00;98090.34;7396030;19;20014;-78
2023/07/23 02:03:00;;;;;;;0.00;0.00;;;;;;;18.78;100.00;98098.63;7395047;19;20021;-79
2023/07/23 02:05:26;;;;;;;0.10;0.10;;;;;;;18.77;100.00;98091.50;7396532;19;20086;-79
2023/07/23 02:07:53;;;;;;;0.10;0.10;;;;;;;18.74;100.00;98093.41;7392626;19;20031;-79
2023/07/23 02:10:20;;;;;;;0.43;0.00;;;;;;;18.71;100.00;98091.72;7395771;19;20043;-79
2023/07/23 02:12:46;;;;;;;0.22;0.20;;;;;;;18.72;100.00;98095.28;7396486;19;20086;-79
2023/07/23 02:15:13;;;;;;;0.00;0.00;;;;;;;18.78;100.00;98093.00;7394203;19;20010;-79
2023/07/23 02:17:39;;;;;;;0.00;0.00;;;;;;;18.82;100.00;98090.50;7392970;19;20010;-79
2023/07/23 02:20:06;;;;;;;0.00;0.00;;;;;;;18.83;100.00;98097.66;7395892;19;20007;-78
2023/07/23 02:22:33;;;;;;;0.08;0.00;;;;;;;18.85;100.00;98097.84;7395825;19;20022;-79
2023/07/23 02:24:59;;;;;;;11.18;0.30;;;;;;;18.78;100.00;98090.91;7397411;19;20361;-79
2023/07/23 02:27:25;;;;;;;0.20;0.00;;;;;;;18.88;100.00;98085.41;7393949;19;20018;-78
2023/07/23 02:29:51;;;;;;;2.33;0.10;;;;;;;18.73;100.00;98085.53;7395022;19;20031;-78
2023/07/23 02:32:17;;;;;;;0.05;0.00;;;;;;;18.96;100.00;98090.97;7394895;19;20018;-79
2023/07/23 02:34:43;;;;;;;0.80;0.10;;;;;;;18.75;100.00;98085.69;7393749;19;20014;-79
2023/07/23 02:37:10;;;;;;;0.10;0.10;;;;;;;18.64;100.00;98083.31;7395130;19;20026;-79
2023/07/23 02:39:36;;;;;;;0.00;0.00;;;;;;;18.65;100.00;98084.81;7393669;19;20027;-79
2023/07/23 02:42:02;;;;;;;0.73;0.15;;;;;;;18.65;100.00;98079.16;7393315;19;20082;-79
2023/07/23 02:44:28;;;;;;;0.10;0.00;;;;;;;18.64;100.00;98080.50;7394048;19;20014;-79
2023/07/23 02:46:54;;;;;;;0.13;0.00;;;;;;;18.55;100.00;98081.13;7393658;19;20022;-79
2023/07/23 02:49:21;;;;;;;0.10;0.10;;;;;;;18.60;100.00;98078.06;7395571;19;20022;-78
2023/07/23 02:51:47;;;;;;;0.10;0.00;;;;;;;18.63;100.00;98079.00;7394135;19;20010;-78
2023/07/23 02:54:13;;;;;;;0.30;0.00;;;;;;;18.61;100.00;98073.19;7393261;19;20022;-79
2023/07/23 02:56:39;;;;;;;0.03;0.00;;;;;;;18.67;100.00;98076.50;7394339;19;20514;-79
2023/07/23 02:59:05;;;;;;;0.20;0.00;;;;;;;18.47;100.00;98075.53;7396204;19;20116;-78
2023/07/23 03:01:32;;;;;;;0.28;0.20;;;;;;;18.81;100.00;98074.94;7391375;19;20349;-79
2023/07/23 03:03:58;;;;;;;0.32;0.08;;;;;;;18.60;100.00;98082.97;7392882;19;20026;-79
2023/07/23 03:06:24;;;;;;;0.38;0.10;;;;;;;18.63;100.00;98081.81;7392066;19;20019;-78
2023/07/23 03:08:50;;;;;;;0.73;0.30;;;;;;;18.60;100.00;98080.16;7394387;19;20047;-79
2023/07/23 03:11:16;;;;;;;0.10;0.10;;;;;;;19.29;100.00;98079.06;7394201;19;20014;-79
2023/07/23 03:13:42;;;;;;;0.43;0.00;;;;;;;19.31;100.00;98076.41;7394019;19;20025;-78
2023/07/23 03:16:09;;;;;;;0.45;0.10;;;;;;;19.44;100.00;98078.19;7393725;19;20015;-78
2023/07/23 03:18:36;;;;;;;0.40;0.10;;;;;;;18.68;100.00;98084.41;7394383;19;20431;-78
2023/07/23 03:21:02;;;;;;;0.03;0.03;;;;;;;18.76;100.00;98085.09;7393067;19;20020;-79
2023/07/23 03:23:28;;;;;;;0.70;0.35;;;;;;;18.83;100.00;98080.75;7394167;19;20050;-79
2023/07/23 03:25:54;;;;;;;0.20;0.10;;;;;;;19.29;100.00;98079.06;7392369;19;20018;-79
2023/07/23 03:28:20;;;;;;;0.10;0.10;;;;;;;18.98;100.00;98080.63;7391304;19;20116;-79
2023/07/23 03:30:46;;;;;;;0.95;0.15;;;;;;;20.24;100.00;98086.91;7392583;19;20010;-79
2023/07/23 03:33:12;;;;;;;0.30;0.00;;;;;;;19.89;100.00;98074.13;7393648;19;20018;-79
2023/07/23 03:35:39;;;;;;;0.30;0.20;;;;;;;19.19;100.00;98078.19;7394020;19;20025;-79
2023/07/23 03:38:05;;;;;;;0.15;0.00;;;;;;;19.31;100.00;98081.28;7391998;19;20025;-78
2023/07/23 03:40:31;;;;;;;0.88;0.15;;;;;;;19.06;100.00;98084.13;7392359;19;20326;-79
2023/07/23 03:42:57;;;;;;;0.10;0.10;;;;;;;18.79;100.00;98086.03;7393101;19;20018;-78
2023/07/23 03:45:23;;;;;;;0.28;0.15;;;;;;;19.00;100.00;98085.69;7393271;19;20035;-78
2023/07/23 03:47:49;;;;;;;0.17;0.00;;;;;;;20.24;100.00;98092.56;7390609;19;20114;-78
2023/07/23 03:50:16;;;;;;;0.35;0.30;;;;;;;18.94;100.00;98091.56;7392422;19;20022;-78
2023/07/23 03:52:42;;;;;;;0.25;0.00;;;;;;;18.69;100.00;98093.63;7392971;19;20036;-78
2023/07/23 03:55:08;;;;;;;1.05;0.20;;;;;;;18.68;100.00;98092.13;7394008;19;20527;-78
2023/07/23 03:57:35;;;;;;;1.88;0.65;;;;;;;18.63;100.00;98093.84;7389554;19;20023;-78
2023/07/23 04:00:03;;;;;;;0.90;0.10;;;;;;;18.59;100.00;98099.13;7392858;19;20022;-78
2023/07/23 04:02:37;;;;;;;0.40;0.00;;;;;;;18.59;100.00;98101.19;7391997;19;20011;-79
2023/07/23 04:05:04;;;;;;;0.65;0.25;;;;;;;18.53;100.00;98100.69;7390353;19;20011;-79
2023/07/23 04:07:30;;;;;;;0.20;0.00;;;;;;;19.07;100.00;98102.56;7392885;19;20038;-79
2023/07/23 04:09:56;;;;;;;0.52;0.08;;;;;;;20.73;100.00;98097.91;7392657;19;20043;-79
2023/07/23 04:12:23;;;;;;;0.38;0.38;;;;;;;20.50;100.00;98105.97;7392325;19;20018;-79
2023/07/23 04:14:52;;;;;;;3.15;0.35;;;;;;;19.53;100.00;98105.78;7392685;19;20020;-79
2023/07/23 04:17:18;;;;;;;0.08;0.00;;;;;;;19.61;100.00;98104.34;7389776;19;20022;-79
2023/07/23 04:19:44;;;;;;;0.52;0.28;;;;;;;19.51;100.00;98106.31;7394617;19;20018;-79
2023/07/23 04:22:10;;;;;;;0.32;0.08;;;;;;;19.35;100.00;98104.97;7389841;19;20049;-78
2023/07/23 04:24:36;;;;;;;0.10;0.10;;;;;;;19.23;100.00;98103.91;7396768;19;20037;-79
2023/07/23 04:27:03;;;;;;;0.25;0.10;;;;;;;18.98;100.00;98100.38;7389409;19;20018;-79
2023/07/23 04:29:29;;;;;;;0.32;0.13;;;;;;;18.72;100.00;98100.94;7389321;19;20013;-79
2023/07/23 04:31:55;;;;;;;0.00;0.00;;;;;;;18.81;100.00;98101.06;7392774;19;20014;-78
2023/07/23 04:34:21;;;;;;;0.52;0.43;;;;;;;18.73;100.00;98100.34;7392710;19;20019;-78
2023/07/23 04:36:51;;;;;;;0.22;0.22;;;;;;;18.77;100.00;98102.78;7389855;19;20006;-79
2023/07/23 04:39:19;;;;;;;0.00;0.00;;;;;;;18.93;100.00;98096.44;7391749;19;20018;-79
2023/07/23 04:41:45;;;;;;;0.10;0.00;;;;;;;18.93;100.00;98099.28;7389722;19;20476;-78
2023/07/23 04:44:12;;;;;;;0.77;0.25;;;;;;;18.92;100.00;98109.06;7393481;19;20018;-78
2023/07/23 04:46:38;;;;;;;0.10;0.03;;;;;;;18.81;100.00;98098.25;7390350;19;20014;-79
2023/07/23 04:49:04;;;;;;;3.53;0.35;;;;;;;18.79;100.00;98102.97;7390862;19;20019;-79
2023/07/23 04:51:30;;;;;;;0.35;0.22;;;;;;;18.58;100.00;98108.19;7391157;19;20345;-78
2023/07/23 04:53:56;;;;;;;0.00;0.00;;;;;;;18.59;100.00;98104.03;7391338;19;20010;-78
2023/07/23 04:56:23;;;;;;;0.20;0.10;;;;;;;18.63;100.00;98104.38;7392505;19;20069;-79
2023/07/23 04:58:49;;;;;;;0.25;0.03;;;;;;;18.57;100.00;98112.31;7390755;19;20014;-79
2023/07/23 05:01:15;;;;;;;1.08;0.47;;;;;;;18.58;100.00;98111.00;7390012;19;20018;-79
2023/07/23 05:03:41;;;;;;;0.65;0.30;;;;;;;18.61;100.00;98109.84;7391492;19;20018;-79
2023/07/23 05:06:07;;;;;;;0.10;0.10;;;;;;;18.57;100.00;98106.66;7390742;19;20015;-80
2023/07/23 05:08:34;;;;;;;0.15;0.05;;;;;;;18.55;100.00;98112.88;7391098;19;20022;-79
2023/07/23 05:11:02;;;;;;;0.20;0.20;;;;;;;18.55;100.00;98109.31;7390954;19;20018;-79
2023/07/23 05:13:29;;;;;;;0.98;0.13;;;;;;;18.54;100.00;98113.44;7390953;19;20390;-79
2023/07/23 05:15:57;;;;;;;0.17;0.00;;;;;;;18.56;100.00;98122.81;7389203;19;20011;-79
2023/07/23 05:18:24;;;;;;;0.08;0.08;;;;;;;18.57;100.00;98121.50;7387543;19;20086;-79
2023/07/23 05:20:50;;;;;;;0.22;0.10;;;;;;;18.52;100.00;98124.53;7387860;19;20385;-79
2023/07/23 05:23:17;;;;;;;0.00;0.00;;;;;;;18.51;100.00;98131.50;7392663;19;20353;-79
2023/07/23 05:25:44;;;;;;;0.20;0.13;;;;;;;18.54;100.00;98124.72;7390358;19;20014;-79
2023/07/23 05:28:10;;;;;;;0.10;0.00;;;;;;;18.61;100.00;98129.56;7387955;19;20026;-79
2023/07/23 05:30:37;;;;;;;0.10;0.00;;;;;;;18.54;100.00;98124.72;7399373;19;20014;-79
2023/07/23 05:33:03;;;;;;;0.10;0.00;;;;;;;18.48;100.00;98129.81;7397241;19;21379;-79
2023/07/23 05:35:29;;;;;;;0.00;0.00;;;;;;;19.43;100.00;98133.91;7397170;19;20021;-79
2023/07/23 05:37:55;;;;;;;0.10;0.10;;;;;;;18.71;100.00;98144.56;7393850;19;20495;-79
2023/07/23 05:40:21;;;;;;;0.08;0.08;;;;;;;18.33;100.00;98143.97;7398979;19;20014;-79
2023/07/23 05:42:48;;;;;;;1.75;0.30;;;;;;;18.47;100.00;98139.63;7397307;19;20032;-79
2023/07/23 05:45:14;;;;;;;0.10;0.10;;;;;;;18.40;100.00;98138.31;7397108;19;20398;-79
2023/07/23 05:47:40;;;;;;;0.43;0.20;;;;;;;18.48;100.00;98141.84;7396519;19;20021;-79
2023/07/23 05:50:07;;;;;;;0.00;0.00;;;;;;;18.47;100.00;98145.25;7398633;19;20007;-79
2023/07/23 05:52:33;;;;;;;0.10;0.10;;;;;;;18.55;100.00;98137.50;7395471;19;20015;-79
2023/07/23 05:54:59;;;;;;;0.10;0.00;;;;;;;18.55;100.00;98143.91;7396894;19;20015;-78
2023/07/23 05:57:25;;;;;;;0.00;0.00;;;;;;;18.64;100.00;98148.94;7396047;19;20048;-79
2023/07/23 05:59:51;;;;;;;0.05;0.00;;;;;;;18.55;100.00;98148.78;7399939;19;20007;-78
2023/07/23 06:02:17;;;;;;;0.00;0.00;;;;;;;18.58;100.00;98147.66;7394868;19;20017;-79
2023/07/23 06:04:43;;;;;;;0.22;0.20;;;;;;;18.64;100.00;98156.63;7396274;19;20488;-79
2023/07/23 06:07:10;;;;;;;0.00;0.00;;;;;;;18.71;100.00;98150.22;7394715;19;20018;-79
2023/07/23 06:09:36;;;;;;;0.08;0.00;;;;;;;18.83;100.00;98145.63;7398694;19;20383;-78
2023/07/23 06:12:02;;;;;;;0.15;0.00;;;;;;;18.85;100.00;98155.00;7396532;19;20086;-78
2023/07/23 06:14:29;;;;;;;0.00;0.00;;;;;;;18.96;100.00;98164.34;7396138;19;20010;-79
2023/07/23 06:16:55;;;;;;;0.00;0.00;;;;;;;18.99;100.00;98163.94;7395674;19;20131;-78
2023/07/23 06:19:22;;;;;;;0.00;0.00;;;;;;;18.87;100.00;98157.25;7397898;19;20563;-78
2023/07/23 06:21:53;;;;;;;0.10;0.00;;;;;;;19.00;100.00;98165.44;7393873;19;20086;-78
2023/07/23 06:24:19;;;;;;;0.00;0.00;;;;;;;19.04;100.00;98171.41;7400086;19;20119;-78
2023/07/23 06:26:45;;;;;;;0.10;0.00;;;;;;;19.20;100.00;98172.06;7395682;19;20460;-78
2023/07/23 06:29:11;;;;;;;11.27;0.82;;;;;;;19.17;100.00;98173.22;7394926;19;20439;-78
2023/07/23 06:31:38;;;;;;;0.13;0.03;;;;;;;19.33;100.00;98181.00;7397911;19;20013;-78
2023/07/23 06:34:05;;;;;;;0.10;0.10;;;;;;;19.34;100.00;98178.94;7395775;19;20025;-78
2023/07/23 06:36:31;;;;;;;0.05;0.03;;;;;;;19.39;100.00;98184.38;7394632;19;20460;-78
2023/07/23 06:38:57;;;;;;;2.85;0.10;;;;;;;19.25;100.00;98179.56;7394490;19;20477;-78
2023/07/23 06:41:23;;;;;;;0.10;0.00;;;;;;;19.21;100.00;98184.88;7393086;19;20011;-78
2023/07/23 06:43:49;;;;;;;0.25;0.25;;;;;;;19.84;100.00;98190.97;7397270;19;20015;-78
2023/07/23 06:46:19;;;;;;;4.25;0.15;;;;;;;19.47;100.00;98196.34;7394611;19;20086;-78
2023/07/23 06:48:46;;;;;;;0.00;0.00;;;;;;;19.43;100.00;98196.00;7394681;19;20022;-78
2023/07/23 06:51:12;;;;;;;0.00;0.00;;;;;;;19.13;100.00;98186.97;7395637;19;20022;-78
2023/07/23 06:53:39;;;;;;;0.00;0.00;;;;;;;19.25;100.00;98191.59;7394623;19;20025;-78
2023/07/23 06:56:07;;;;;;;0.08;0.08;;;;;;;18.91;100.00;98203.47;7397899;19;20532;-78
2023/07/23 06:58:36;;;;;;;0.00;0.00;;;;;;;18.99;100.00;98202.69;7393047;19;20022;-78
2023/07/23 07:01:05;;;;;;;0.00;0.00;;;;;;;18.93;100.00;98205.72;7392647;19;20015;-78
2023/07/23 07:03:31;;;;;;;0.10;0.00;;;;;;;18.97;100.00;98211.75;7395141;19;20078;-78
2023/07/23 07:06:01;;;;;;;0.10;0.05;;;;;;;19.26;100.00;98215.69;7394335;19;20090;-78
2023/07/23 07:08:28;;;;;;;0.00;0.00;;;;;;;19.63;100.00;98209.03;7395897;19;20018;-78
2023/07/23 07:10:58;;;;;;;0.00;0.00;;;;;;;19.61;100.00;98208.84;7396477;19;20374;-78
2023/07/23 07:13:24;;;;;;;6.87;0.50;;;;;;;19.71;100.00;98208.22;7394533;19;20027;-78
2023/07/23 07:15:50;;;;;;;0.08;0.08;;;;;;;20.30;100.00;98200.47;7394026;19;20039;-78
2023/07/23 07:18:16;;;;;;;0.00;0.00;;;;;;;20.05;100.00;98213.91;7392283;19;20015;-78
2023/07/23 07:20:42;;;;;;;0.22;0.00;;;;;;;19.99;100.00;98216.97;7395466;19;20025;-78
2023/07/23 07:23:08;;;;;;;4.57;0.30;;;;;;;19.82;100.00;98224.66;7395539;19;20073;-78
2023/07/23 07:25:36;;;;;;;16.55;0.38;;;;;;;20.05;100.00;98223.16;7394340;19;20026;-78
2023/07/23 07:28:02;;;;;;;0.35;0.10;;;;;;;19.74;100.00;98221.16;7392352;19;20463;-78
2023/07/23 07:30:28;;;;;;;0.00;0.00;;;;;;;19.73;100.00;98222.50;7396315;19;20007;-78
2023/07/23 07:32:54;;;;;;;0.00;0.00;;;;;;;19.66;100.00;98224.06;7392586;19;20011;-78
2023/07/23 07:35:21;;;;;;;0.30;0.22;;;;;;;19.77;100.00;98225.69;7391209;19;20479;-78
2023/07/23 07:37:47;;;;;;;0.40;0.20;;;;;;;20.03;100.00;98228.59;7391876;19;20010;-78
2023/07/23 07:40:13;;;;;;;4.65;0.30;;;;;;;20.53;100.00;98226.41;7395143;19;20027;-78
2023/07/23 07:42:40;;;;;;;0.00;0.00;;;;;;;20.49;100.00;98228.91;7393266;19;20038;-78
2023/07/23 07:45:07;;;;;;;0.00;0.00;;;;;;;21.63;100.00;98225.28;7392022;19;20010;-79
2023/07/23 07:47:33;;;;;;;0.50;0.10;;;;;;;20.66;100.00;98226.06;7391086;19;20014;-79
2023/07/23 07:49:59;;;;;;;0.00;0.00;;;;;;;21.20;100.00;98223.31;7392923;19;20460;-79
2023/07/23 07:52:25;;;;;;;0.10;0.10;;;;;;;20.76;100.00;98228.97;7393631;19;20021;-79
2023/07/23 07:54:52;;;;;;;0.00;0.00;;;;;;;20.60;100.00;98234.06;7393199;19;20014;-78
2023/07/23 07:57:18;;;;;;;0.05;0.00;;;;;;;20.66;100.00;98231.00;7390709;19;20018;-78
2023/07/23 07:59:45;;;;;;;0.20;0.20;;;;;;;20.64;100.00;98230.81;7391314;19;20031;-79
2023/07/23 08:02:11;;;;;;;0.10;0.00;;;;;;;20.29;100.00;98238.56;7392867;19;20031;-78
2023/07/23 08:04:37;;;;;;;0.10;0.10;;;;;;;20.59;100.00;98238.22;7392374;19;20031;-78
2023/07/23 08:07:04;;;;;;;0.00;0.00;;;;;;;20.27;100.00;98252.53;7391644;19;20026;-78
2023/07/23 08:09:32;;;;;;;0.00;0.00;;;;;;;20.39;100.00;98247.88;7390088;19;20047;-78
2023/07/23 08:11:59;;;;;;;0.00;0.00;;;;;;;20.39;100.00;98254.28;7390384;19;20097;-78
2023/07/23 08:14:26;;;;;;;0.05;0.03;;;;;;;20.23;100.00;98257.84;7394215;19;20465;-79
2023/07/23 08:16:54;;;;;;;0.00;0.00;;;;;;;20.39;100.00;98259.19;7391329;19;20039;-78
2023/07/23 08:19:21;;;;;;;0.10;0.10;;;;;;;20.47;100.00;98254.19;7392072;19;20021;-78
2023/07/23 08:21:47;;;;;;;0.00;0.00;;;;;;;20.67;100.00;98255.84;7390748;19;20010;-78
2023/07/23 08:24:13;;;;;;;0.00;0.00;;;;;;;21.38;100.00;98264.38;7394717;19;20030;-78
2023/07/23 08:26:41;;;;;;;1.50;0.10;;;;;;;22.85;100.00;98255.81;7393584;19;20032;-78
2023/07/23 08:29:08;;;;;;;0.00;0.00;;;;;;;22.50;100.00;98256.06;7392326;19;20074;-78
2023/07/23 08:31:35;;;;;;;0.00;0.00;;;;;;;21.81;100.00;98269.19;7389747;19;20337;-78
2023/07/23 08:34:04;;;;;;;0.10;0.00;;;;;;;21.78;100.00;98261.88;7391312;19;20078;-78
2023/07/23 08:36:31;;;;;;;0.10;0.00;;;;;;;21.60;100.00;98260.47;7391028;19;20469;-78
2023/07/23 08:38:57;;;;;;;0.00;0.00;;;;;;;21.11;100.00;98270.06;7394377;19;20014;-78
2023/07/23 08:41:54;;;;;;;0.10;0.00;;;;;;;21.08;100.00;98271.97;7391200;19;20019;-78
2023/07/23 08:44:44;;;;;;;0.10;0.00;;;;;;;21.27;100.00;98276.25;7391494;19;20007;-78
2023/07/23 08:47:12;;;;;;;0.40;0.25;;;;;;;21.25;100.00;98273.25;7390918;19;20058;-78
2023/07/23 08:49:42;;;;;;;0.10;0.00;;;;;;;21.28;100.00;98283.41;7394721;19;20530;-78
2023/07/23 08:52:12;;;;;;;0.10;0.00;;;;;;;21.04;100.00;98276.56;7392511;19;20528;-78
2023/07/23 08:54:41;;;;;;;0.00;0.00;;;;;;;21.38;100.00;98278.53;7391110;19;20040;-78
2023/07/23 08:57:08;;;;;;;0.00;0.00;;;;;;;21.73;100.00;98277.06;7390575;19;20011;-78
2023/07/23 08:59:36;;;;;;;0.10;0.00;;;;;;;21.60;100.00;98285.94;7392800;19;20046;-78
2023/07/23 09:02:03;;;;;;;0.10;0.10;;;;;;;21.29;100.00;98285.63;7389665;19;20036;-77
2023/07/23 09:04:29;;;;;;;1.17;0.20;;;;;;;21.38;100.00;98289.88;7394413;19;20082;-77
2023/07/23 09:07:00;;;;;;;0.00;0.00;;;;;;;21.74;100.00;98295.56;7396888;19;20043;-77
2023/07/23 09:09:26;;;;;;;0.00;0.00;;;;;;;21.59;100.00;98295.81;7401109;19;20469;-75
2023/07/23 09:11:52;;;;;;;0.80;0.32;;;;;;;21.56;100.00;98296.97;7397463;19;20045;-78
2023/07/23 09:14:19;;;;;;;0.65;0.10;;;;;;;22.02;100.00;98306.31;7398559;19;20027;-77
2023/07/23 09:16:49;;;;;;;0.10;0.00;;;;;;;23.68;100.00;98311.56;7397761;19;20022;-77
2023/07/23 09:19:29;;;;;;;0.08;0.00;;;;;;;22.25;100.00;98305.91;7397997;19;20006;-77
2023/07/23 09:21:59;;;;;;;0.00;0.00;;;;;;;22.37;100.00;98310.41;7398934;19;20018;-77
2023/07/23 09:24:34;;;;;;;0.00;0.00;;;;;;;23.08;100.00;98315.69;7401727;19;20018;-77
2023/07/23 09:27:02;;;;;;;0.10;0.00;;;;;;;22.63;100.00;98313.75;7397014;19;20029;-77
2023/07/23 09:29:35;;;;;;;0.10;0.05;;;;;;;22.18;100.00;98318.88;7397296;19;20019;-78
2023/07/23 09:32:02;;;;;;;0.00;0.00;;;;;;;22.16;100.00;98324.38;7397054;19;20014;-77
2023/07/23 09:34:28;;;;;;;0.00;0.00;;;;;;;22.18;100.00;98329.47;7401860;19;20025;-77
2023/07/23 09:36:54;;;;;;;0.00;0.00;;;;;;;21.99;100.00;98315.97;7395095;19;20022;-77
2023/07/23 09:39:27;;;;;;;0.00;0.00;;;;;;;24.51;100.00;98320.16;7395472;19;20021;-77
2023/07/23 09:42:02;;;;;;;0.00;0.00;;;;;;;22.58;100.00;98324.03;7394874;19;20085;-77
2023/07/23 09:44:28;;;;;;;0.00;0.00;;;;;;;23.53;100.00;98320.44;7399550;19;20026;-77
2023/07/23 09:46:58;;;;;;;0.00;0.00;;;;;;;22.70;100.00;98329.91;7395645;19;20014;-77
2023/07/23 09:49:30;;;;;;;0.10;0.00;;;;;;;24.68;100.00;98336.97;7397032;19;20108;-77
2023/07/23 09:51:58;;;;;;;0.00;0.00;;;;;;;24.65;100.00;98329.63;7397722;19;20122;-78
2023/07/23 09:54:25;;;;;;;0.10;0.00;;;;;;;24.67;100.00;98339.06;7395991;19;20038;-77
2023/07/23 09:56:53;;;;;;;0.10;0.00;;;;;;;24.50;100.00;98336.47;7399231;19;20532;-77
2023/07/23 09:59:21;;;;;;;0.00;0.00;;;;;;;25.56;100.00;98339.97;7396848;19;20019;-77
2023/07/23 10:01:47;;;;;;;0.00;0.00;;;;;;;25.18;100.00;98337.50;7394811;19;20022;-77
2023/07/23 10:04:15;;;;;;;1.75;0.40;;;;;;;25.37;100.00;98337.31;7397111;19;20015;-77
2023/07/23 10:06:42;;;;;;;0.10;0.00;;;;;;;25.18;100.00;98346.03;7395021;19;20534;-77
2023/07/23 10:09:11;;;;;;;0.00;0.00;;;;;;;24.19;100.00;98347.13;7400921;19;20015;-77
2023/07/23 10:11:37;;;;;;;0.08;0.00;;;;;;;24.72;100.00;98351.47;7395920;19;20369;-77
2023/07/23 10:14:03;;;;;;;0.10;0.00;;;;;;;24.77;100.00;98347.56;7395975;19;20337;-77
2023/07/23 10:16:38;;;;;;;0.22;0.10;;;;;;;24.94;100.00;98349.38;7395320;19;20015;-78
2023/07/23 10:19:05;;;;;;;0.10;0.10;;;;;;;24.82;100.00;98349.31;7395623;19;20077;-77
2023/07/23 10:21:33;;;;;;;0.10;0.00;;;;;;;24.86;100.00;98343.91;7394926;19;20010;-77
2023/07/23 10:24:00;;;;;;;0.25;0.05;;;;;;;24.38;100.00;98357.69;7397240;19;20034;-77
2023/07/23 10:26:40;;;;;;;0.00;0.00;;;;;;;24.85;100.00;98359.50;7395524;19;20018;-77
2023/07/23 10:29:15;;;;;;;0.10;0.00;;;;;;;24.67;100.00;98355.38;7395966;19;20018;-77
2023/07/23 10:31:45;;;;;;;0.10;0.00;;;;;;;24.72;100.00;98357.91;7398607;19;20047;-78
2023/07/23 10:34:22;;;;;;;0.00;0.00;;;;;;;25.00;100.00;98369.72;7395077;19;20022;-78
2023/07/23 10:37:15;;;;;;;0.10;0.00;;;;;;;23.51;100.00;98371.44;7394607;19;20018;-78
2023/07/23 10:39:43;;;;;;;0.10;0.00;;;;;;;24.30;100.00;98374.94;7395354;19;20018;-78
2023/07/23 10:42:09;;;;;;;0.00;0.00;;;;;;;22.82;100.00;98367.69;7392819;19;20420;-78
2023/07/23 10:44:38;;;;;;;0.00;0.00;;;;;;;22.56;100.00;98378.56;7398444;19;20091;-78
2023/07/23 10:47:32;;;;;;;0.55;0.10;;;;;;;24.17;100.00;98378.28;7393639;19;20349;-78
2023/07/23 10:50:12;;;;;;;0.82;0.17;;;;;;;25.09;100.00;98372.50;7395466;19;20030;-78
2023/07/23 10:52:38;;;;;;;0.17;0.00;;;;;;;25.71;100.00;98377.97;7396134;19;20018;-78
2023/07/23 10:55:07;;;;;;;0.20;0.00;;;;;;;26.87;100.00;98373.06;7394534;19;20018;-78
2023/07/23 10:57:38;;;;;;;0.00;0.00;;;;;;;26.99;100.00;98373.75;7391652;19;20099;-78
2023/07/23 11:00:19;;;;;;;0.10;0.00;;;;;;;26.64;100.00;98375.94;7394289;19;20026;-78
2023/07/23 11:02:52;;;;;;;0.00;0.00;;;;;;;26.80;100.00;98369.09;7394350;19;20018;-77
2023/07/23 11:05:22;;;;;;;0.10;0.00;;;;;;;26.39;100.00;98370.09;7394349;19;20026;-77
2023/07/23 11:08:23;;;;;;;0.00;0.00;;;;;;;26.71;100.00;98367.09;7396093;19;20116;-77
2023/07/23 11:11:05;;;;;;;0.00;0.00;;;;;;;27.79;100.00;98363.34;7395362;19;20031;-77
2023/07/23 11:13:33;;;;;;;0.10;0.00;;;;;;;26.61;100.00;98363.63;7394293;19;20020;-78
2023/07/23 11:16:00;;;;;;;1.10;0.10;;;;;;;26.87;100.00;98353.81;7393739;19;20015;-78
2023/07/23 11:18:28;;;;;;;0.85;0.10;;;;;;;27.28;100.00;98350.41;7391185;19;20023;-78
2023/07/23 11:20:56;;;;;;;0.10;0.00;;;;;;;28.18;100.00;98358.34;7396422;19;20098;-78
2023/07/23 11:23:25;;;;;;;0.10;0.10;;;;;;;27.58;100.00;98352.16;7395458;19;20038;-78
2023/07/23 11:25:52;;;;;;;0.00;0.00;;;;;;;28.32;100.00;98358.38;7393278;19;20014;-78